sensor_id;sensor_type;location;lat;lon;timestamp;P1;durP1;ratioP1;P2;durP2;ratioP2
40995;SDS011;26723;57.478;12.066;2023-05-10T00:01:55;2.80;;;2.60;;
40995;SDS011;26723;57.478;12.066;2023-05-10T00:05:03;2.53;;;2.33;;
40995;SDS011;26723;57.478;12.066;2023-05-10T00:08:12;2.67;;;2.50;;
40995;SDS011;26723;57.478;12.066;2023-05-10T00:11:22;2.70;;;2.50;;
40995;SDS011;26723;57.478;12.066;2023-05-10T00:14:31;2.47;;;2.30;;
40995;SDS011;26723;57.478;12.066;2023-05-10T00:17:39;2.60;;;2.40;;
40995;SDS011;26723;57.478;12.066;2023-05-10T00:20:48;3.50;;;2.60;;
40995;SDS011;26723;57.478;12.066;2023-05-10T00:23:56;2.50;;;2.40;;
40995;SDS011;26723;57.478;12.066;2023-05-10T00:27:06;2.88;;;2.67;;
40995;SDS011;26723;57.478;12.066;2023-05-10T00:30:16;3.67;;;2.63;;
40995;SDS011;26723;57.478;12.066;2023-05-10T00:33:25;2.63;;;2.43;;
40995;SDS011;26723;57.478;12.066;2023-05-10T00:36:33;2.92;;;2.58;;
40995;SDS011;26723;57.478;12.066;2023-05-10T00:39:42;2.57;;;2.37;;
40995;SDS011;26723;57.478;12.066;2023-05-10T00:42:52;3.93;;;2.50;;
40995;SDS011;26723;57.478;12.066;2023-05-10T00:46:00;2.90;;;2.70;;
40995;SDS011;26723;57.478;12.066;2023-05-10T00:49:09;4.13;;;2.83;;
40995;SDS011;26723;57.478;12.066;2023-05-10T00:52:18;3.67;;;2.27;;
40995;SDS011;26723;57.478;12.066;2023-05-10T00:55:26;3.47;;;2.73;;
40995;SDS011;26723;57.478;12.066;2023-05-10T00:58:36;4.07;;;2.50;;
40995;SDS011;26723;57.478;12.066;2023-05-10T01:01:45;2.72;;;2.45;;
40995;SDS011;26723;57.478;12.066;2023-05-10T01:04:54;2.53;;;2.43;;
40995;SDS011;26723;57.478;12.066;2023-05-10T01:08:03;2.50;;;2.30;;
40995;SDS011;26723;57.478;12.066;2023-05-10T01:11:12;2.57;;;2.30;;
40995;SDS011;26723;57.478;12.066;2023-05-10T01:14:23;2.60;;;2.40;;
40995;SDS011;26723;57.478;12.066;2023-05-10T01:17:32;2.30;;;2.10;;
40995;SDS011;26723;57.478;12.066;2023-05-10T01:20:43;2.60;;;2.40;;
40995;SDS011;26723;57.478;12.066;2023-05-10T01:31:23;2.30;;;2.10;;
40995;SDS011;26723;57.478;12.066;2023-05-10T01:35:02;2.40;;;2.30;;
40995;SDS011;26723;57.478;12.066;2023-05-10T01:38:16;2.40;;;2.30;;
40995;SDS011;26723;57.478;12.066;2023-05-10T01:41:28;3.67;;;2.50;;
40995;SDS011;26723;57.478;12.066;2023-05-10T01:44:45;2.60;;;2.50;;
40995;SDS011;26723;57.478;12.066;2023-05-10T01:48:05;3.37;;;2.23;;
40995;SDS011;26723;57.478;12.066;2023-05-10T01:51:16;2.33;;;2.07;;
40995;SDS011;26723;57.478;12.066;2023-05-10T01:54:30;2.60;;;2.50;;
40995;SDS011;26723;57.478;12.066;2023-05-10T01:57:42;2.83;;;2.60;;
40995;SDS011;26723;57.478;12.066;2023-05-10T02:00:52;2.77;;;2.57;;
40995;SDS011;26723;57.478;12.066;2023-05-10T02:04:02;2.83;;;2.17;;
40995;SDS011;26723;57.478;12.066;2023-05-10T02:07:14;2.23;;;2.13;;
40995;SDS011;26723;57.478;12.066;2023-05-10T02:10:24;2.37;;;2.10;;
40995;SDS011;26723;57.478;12.066;2023-05-10T02:13:34;2.60;;;2.40;;
40995;SDS011;26723;57.478;12.066;2023-05-10T02:16:46;3.97;;;2.53;;
40995;SDS011;26723;57.478;12.066;2023-05-10T02:19:55;3.77;;;2.53;;
40995;SDS011;26723;57.478;12.066;2023-05-10T02:23:08;2.47;;;2.20;;
40995;SDS011;26723;57.478;12.066;2023-05-10T02:26:17;3.63;;;2.50;;
40995;SDS011;26723;57.478;12.066;2023-05-10T02:29:28;2.70;;;2.40;;
40995;SDS011;26723;57.478;12.066;2023-05-10T02:32:38;2.40;;;2.20;;
40995;SDS011;26723;57.478;12.066;2023-05-10T02:35:49;4.80;;;2.53;;
40995;SDS011;26723;57.478;12.066;2023-05-10T02:39:00;2.60;;;2.40;;
40995;SDS011;26723;57.478;12.066;2023-05-10T02:42:10;2.73;;;2.53;;
40995;SDS011;26723;57.478;12.066;2023-05-10T02:45:23;2.90;;;2.20;;
40995;SDS011;26723;57.478;12.066;2023-05-10T02:48:35;2.60;;;2.40;;
40995;SDS011;26723;57.478;12.066;2023-05-10T02:51:47;2.70;;;2.30;;
40995;SDS011;26723;57.478;12.066;2023-05-10T02:55:00;2.57;;;2.37;;
40995;SDS011;26723;57.478;12.066;2023-05-10T02:58:12;3.40;;;2.60;;
40995;SDS011;26723;57.478;12.066;2023-05-10T03:01:21;2.70;;;2.50;;
40995;SDS011;26723;57.478;12.066;2023-05-10T03:04:30;2.60;;;2.40;;
40995;SDS011;26723;57.478;12.066;2023-05-10T03:07:38;2.60;;;2.40;;
40995;SDS011;26723;57.478;12.066;2023-05-10T03:10:50;2.60;;;2.40;;
40995;SDS011;26723;57.478;12.066;2023-05-10T03:14:16;3.93;;;2.70;;
40995;SDS011;26723;57.478;12.066;2023-05-10T03:17:46;4.30;;;2.60;;
40995;SDS011;26723;57.478;12.066;2023-05-10T03:21:02;2.93;;;2.23;;
40995;SDS011;26723;57.478;12.066;2023-05-10T03:24:13;3.07;;;2.60;;
40995;SDS011;26723;57.478;12.066;2023-05-10T03:27:26;3.87;;;2.33;;
40995;SDS011;26723;57.478;12.066;2023-05-10T03:30:35;2.57;;;2.47;;
40995;SDS011;26723;57.478;12.066;2023-05-10T03:33:46;4.37;;;2.67;;
40995;SDS011;26723;57.478;12.066;2023-05-10T03:37:01;3.17;;;2.50;;
40995;SDS011;26723;57.478;12.066;2023-05-10T03:40:11;3.73;;;2.73;;
40995;SDS011;26723;57.478;12.066;2023-05-10T03:43:23;4.10;;;2.50;;
40995;SDS011;26723;57.478;12.066;2023-05-10T03:46:31;2.87;;;2.60;;
40995;SDS011;26723;57.478;12.066;2023-05-10T03:49:41;4.70;;;2.73;;
40995;SDS011;26723;57.478;12.066;2023-05-10T03:52:51;2.70;;;2.50;;
40995;SDS011;26723;57.478;12.066;2023-05-10T03:56:01;3.20;;;2.70;;
40995;SDS011;26723;57.478;12.066;2023-05-10T03:59:11;2.87;;;2.63;;
40995;SDS011;26723;57.478;12.066;2023-05-10T04:02:19;2.60;;;2.40;;
40995;SDS011;26723;57.478;12.066;2023-05-10T04:05:28;2.40;;;2.20;;
40995;SDS011;26723;57.478;12.066;2023-05-10T04:08:37;2.60;;;2.40;;
40995;SDS011;26723;57.478;12.066;2023-05-10T04:11:46;2.60;;;2.10;;
40995;SDS011;26723;57.478;12.066;2023-05-10T04:14:56;2.50;;;2.30;;
40995;SDS011;26723;57.478;12.066;2023-05-10T04:18:04;4.17;;;2.60;;
40995;SDS011;26723;57.478;12.066;2023-05-10T04:21:14;3.10;;;2.27;;
40995;SDS011;26723;57.478;12.066;2023-05-10T04:24:23;2.67;;;2.47;;
40995;SDS011;26723;57.478;12.066;2023-05-10T04:27:31;3.03;;;2.73;;
40995;SDS011;26723;57.478;12.066;2023-05-10T04:30:41;3.03;;;2.77;;
40995;SDS011;26723;57.478;12.066;2023-05-10T04:33:50;2.97;;;2.77;;
40995;SDS011;26723;57.478;12.066;2023-05-10T04:36:58;3.20;;;2.90;;
40995;SDS011;26723;57.478;12.066;2023-05-10T04:40:07;3.43;;;2.80;;
40995;SDS011;26723;57.478;12.066;2023-05-10T04:43:16;4.73;;;2.67;;
40995;SDS011;26723;57.478;12.066;2023-05-10T04:46:26;3.00;;;2.80;;
40995;SDS011;26723;57.478;12.066;2023-05-10T04:49:44;2.70;;;2.50;;
40995;SDS011;26723;57.478;12.066;2023-05-10T04:52:52;4.37;;;2.80;;
40995;SDS011;26723;57.478;12.066;2023-05-10T04:56:00;3.20;;;2.67;;
40995;SDS011;26723;57.478;12.066;2023-05-10T04:59:09;4.57;;;2.60;;
40995;SDS011;26723;57.478;12.066;2023-05-10T05:02:19;2.83;;;2.63;;
40995;SDS011;26723;57.478;12.066;2023-05-10T05:05:28;3.43;;;2.90;;
40995;SDS011;26723;57.478;12.066;2023-05-10T05:08:39;3.87;;;2.40;;
40995;SDS011;26723;57.478;12.066;2023-05-10T05:11:47;3.53;;;2.50;;
40995;SDS011;26723;57.478;12.066;2023-05-10T05:14:56;3.07;;;2.40;;
40995;SDS011;26723;57.478;12.066;2023-05-10T05:18:06;2.90;;;2.70;;
40995;SDS011;26723;57.478;12.066;2023-05-10T05:21:14;2.80;;;2.60;;
40995;SDS011;26723;57.478;12.066;2023-05-10T05:24:23;4.23;;;2.70;;
40995;SDS011;26723;57.478;12.066;2023-05-10T05:27:32;2.80;;;2.53;;
40995;SDS011;26723;57.478;12.066;2023-05-10T05:30:40;2.83;;;2.63;;
40995;SDS011;26723;57.478;12.066;2023-05-10T05:33:50;2.53;;;2.33;;
40995;SDS011;26723;57.478;12.066;2023-05-10T05:36:58;2.78;;;2.58;;
40995;SDS011;26723;57.478;12.066;2023-05-10T05:40:08;4.43;;;2.78;;
40995;SDS011;26723;57.478;12.066;2023-05-10T05:43:19;3.67;;;3.25;;
40995;SDS011;26723;57.478;12.066;2023-05-10T05:46:28;3.08;;;2.85;;
40995;SDS011;26723;57.478;12.066;2023-05-10T05:49:38;2.85;;;2.65;;
40995;SDS011;26723;57.478;12.066;2023-05-10T05:52:46;2.83;;;2.60;;
40995;SDS011;26723;57.478;12.066;2023-05-10T05:55:55;3.17;;;2.85;;
40995;SDS011;26723;57.478;12.066;2023-05-10T05:59:04;3.22;;;2.60;;
40995;SDS011;26723;57.478;12.066;2023-05-10T06:02:13;3.00;;;2.70;;
40995;SDS011;26723;57.478;12.066;2023-05-10T06:05:23;2.97;;;2.70;;
40995;SDS011;26723;57.478;12.066;2023-05-10T06:08:31;3.00;;;2.80;;
40995;SDS011;26723;57.478;12.066;2023-05-10T06:11:40;2.65;;;2.50;;
40995;SDS011;26723;57.478;12.066;2023-05-10T06:14:49;2.85;;;2.53;;
40995;SDS011;26723;57.478;12.066;2023-05-10T06:17:58;3.85;;;2.50;;
40995;SDS011;26723;57.478;12.066;2023-05-10T06:21:08;3.65;;;2.83;;
40995;SDS011;26723;57.478;12.066;2023-05-10T06:24:16;3.90;;;2.42;;
40995;SDS011;26723;57.478;12.066;2023-05-10T06:27:27;2.55;;;2.38;;
40995;SDS011;26723;57.478;12.066;2023-05-10T06:30:35;2.63;;;2.42;;
40995;SDS011;26723;57.478;12.066;2023-05-10T06:33:44;2.67;;;2.33;;
40995;SDS011;26723;57.478;12.066;2023-05-10T06:36:54;2.40;;;2.30;;
40995;SDS011;26723;57.478;12.066;2023-05-10T06:40:03;3.05;;;2.40;;
40995;SDS011;26723;57.478;12.066;2023-05-10T06:43:12;2.50;;;2.30;;
40995;SDS011;26723;57.478;12.066;2023-05-10T06:46:20;2.78;;;2.38;;
40995;SDS011;26723;57.478;12.066;2023-05-10T06:49:29;3.05;;;2.85;;
40995;SDS011;26723;57.478;12.066;2023-05-10T06:52:39;2.53;;;2.42;;
40995;SDS011;26723;57.478;12.066;2023-05-10T06:55:49;3.00;;;2.60;;
40995;SDS011;26723;57.478;12.066;2023-05-10T06:58:58;2.72;;;2.50;;
40995;SDS011;26723;57.478;12.066;2023-05-10T07:02:06;3.00;;;2.42;;
40995;SDS011;26723;57.478;12.066;2023-05-10T07:05:15;2.63;;;2.42;;
40995;SDS011;26723;57.478;12.066;2023-05-10T07:08:25;2.80;;;2.60;;
40995;SDS011;26723;57.478;12.066;2023-05-10T07:11:33;2.70;;;2.50;;
40995;SDS011;26723;57.478;12.066;2023-05-10T07:14:43;2.33;;;2.22;;
40995;SDS011;26723;57.478;12.066;2023-05-10T07:17:53;2.70;;;2.50;;
40995;SDS011;26723;57.478;12.066;2023-05-10T07:21:02;5.97;;;3.28;;
40995;SDS011;26723;57.478;12.066;2023-05-10T07:24:14;2.40;;;2.20;;
40995;SDS011;26723;57.478;12.066;2023-05-10T07:27:25;6.78;;;2.63;;
40995;SDS011;26723;57.478;12.066;2023-05-10T07:30:34;2.90;;;2.70;;
40995;SDS011;26723;57.478;12.066;2023-05-10T07:33:42;3.75;;;2.45;;
40995;SDS011;26723;57.478;12.066;2023-05-10T07:36:51;3.22;;;2.60;;
40995;SDS011;26723;57.478;12.066;2023-05-10T07:40:01;2.72;;;2.53;;
40995;SDS011;26723;57.478;12.066;2023-05-10T07:43:11;2.40;;;2.30;;
40995;SDS011;26723;57.478;12.066;2023-05-10T07:46:19;3.65;;;2.60;;
40995;SDS011;26723;57.478;12.066;2023-05-10T07:49:28;3.05;;;2.38;;
40995;SDS011;26723;57.478;12.066;2023-05-10T07:52:37;2.55;;;2.45;;
40995;SDS011;26723;57.478;12.066;2023-05-10T07:55:51;3.00;;;2.80;;
40995;SDS011;26723;57.478;12.066;2023-05-10T07:59:02;2.88;;;2.67;;
40995;SDS011;26723;57.478;12.066;2023-05-10T08:02:12;3.05;;;2.67;;
40995;SDS011;26723;57.478;12.066;2023-05-10T08:05:21;2.90;;;2.30;;
40995;SDS011;26723;57.478;12.066;2023-05-10T08:08:29;2.97;;;2.30;;
40995;SDS011;26723;57.478;12.066;2023-05-10T08:11:39;2.88;;;2.60;;
40995;SDS011;26723;57.478;12.066;2023-05-10T08:14:48;3.20;;;2.72;;
40995;SDS011;26723;57.478;12.066;2023-05-10T08:17:56;2.80;;;2.55;;
40995;SDS011;26723;57.478;12.066;2023-05-10T08:21:05;3.00;;;2.80;;
40995;SDS011;26723;57.478;12.066;2023-05-10T08:24:14;2.47;;;2.38;;
40995;SDS011;26723;57.478;12.066;2023-05-10T08:27:24;2.40;;;2.30;;
40995;SDS011;26723;57.478;12.066;2023-05-10T08:30:32;2.33;;;2.10;;
40995;SDS011;26723;57.478;12.066;2023-05-10T08:33:41;3.28;;;2.53;;
40995;SDS011;26723;57.478;12.066;2023-05-10T08:36:50;2.53;;;2.33;;
40995;SDS011;26723;57.478;12.066;2023-05-10T08:39:58;3.88;;;2.85;;
40995;SDS011;26723;57.478;12.066;2023-05-10T08:43:09;2.45;;;2.35;;
40995;SDS011;26723;57.478;12.066;2023-05-10T08:46:21;3.67;;;2.63;;
40995;SDS011;26723;57.478;12.066;2023-05-10T08:49:31;2.90;;;2.70;;
40995;SDS011;26723;57.478;12.066;2023-05-10T08:52:40;2.38;;;2.25;;
40995;SDS011;26723;57.478;12.066;2023-05-10T08:55:49;2.80;;;2.50;;
40995;SDS011;26723;57.478;12.066;2023-05-10T08:58:59;2.50;;;2.40;;
40995;SDS011;26723;57.478;12.066;2023-05-10T09:02:08;4.68;;;2.60;;
40995;SDS011;26723;57.478;12.066;2023-05-10T09:05:20;2.80;;;2.50;;
40995;SDS011;26723;57.478;12.066;2023-05-10T09:08:29;2.63;;;2.50;;
40995;SDS011;26723;57.478;12.066;2023-05-10T09:11:37;3.50;;;3.20;;
40995;SDS011;26723;57.478;12.066;2023-05-10T09:14:47;2.55;;;2.35;;
40995;SDS011;26723;57.478;12.066;2023-05-10T09:17:58;3.08;;;2.78;;
40995;SDS011;26723;57.478;12.066;2023-05-10T09:21:09;4.25;;;2.53;;
40995;SDS011;26723;57.478;12.066;2023-05-10T09:24:18;2.65;;;2.50;;
40995;SDS011;26723;57.478;12.066;2023-05-10T09:27:27;2.70;;;2.50;;
40995;SDS011;26723;57.478;12.066;2023-05-10T09:30:36;2.80;;;2.60;;
40995;SDS011;26723;57.478;12.066;2023-05-10T09:33:46;2.63;;;2.42;;
40995;SDS011;26723;57.478;12.066;2023-05-10T09:36:55;2.95;;;2.75;;
40995;SDS011;26723;57.478;12.066;2023-05-10T09:40:07;3.05;;;2.85;;
40995;SDS011;26723;57.478;12.066;2023-05-10T09:43:19;3.42;;;2.38;;
40995;SDS011;26723;57.478;12.066;2023-05-10T09:46:32;2.95;;;2.75;;
40995;SDS011;26723;57.478;12.066;2023-05-10T09:49:43;2.75;;;2.55;;
40995;SDS011;26723;57.478;12.066;2023-05-10T09:52:57;2.95;;;2.75;;
40995;SDS011;26723;57.478;12.066;2023-05-10T09:56:06;2.60;;;2.50;;
40995;SDS011;26723;57.478;12.066;2023-05-10T09:59:15;3.08;;;2.60;;
40995;SDS011;26723;57.478;12.066;2023-05-10T10:02:29;2.88;;;2.70;;
40995;SDS011;26723;57.478;12.066;2023-05-10T10:05:39;3.15;;;2.95;;
40995;SDS011;26723;57.478;12.066;2023-05-10T10:08:48;2.90;;;2.70;;
40995;SDS011;26723;57.478;12.066;2023-05-10T10:12:00;2.97;;;2.78;;
40995;SDS011;26723;57.478;12.066;2023-05-10T10:15:09;2.90;;;2.70;;
40995;SDS011;26723;57.478;12.066;2023-05-10T10:18:22;3.05;;;2.75;;
40995;SDS011;26723;57.478;12.066;2023-05-10T10:21:33;2.75;;;2.63;;
40995;SDS011;26723;57.478;12.066;2023-05-10T10:24:42;3.00;;;2.65;;
40995;SDS011;26723;57.478;12.066;2023-05-10T10:27:56;2.72;;;2.53;;
40995;SDS011;26723;57.478;12.066;2023-05-10T10:31:17;2.78;;;2.58;;
40995;SDS011;26723;57.478;12.066;2023-05-10T10:34:35;2.72;;;2.53;;
40995;SDS011;26723;57.478;12.066;2023-05-10T10:37:44;2.88;;;2.67;;
40995;SDS011;26723;57.478;12.066;2023-05-10T10:41:01;2.60;;;2.40;;
40995;SDS011;26723;57.478;12.066;2023-05-10T10:44:24;2.88;;;2.67;;
40995;SDS011;26723;57.478;12.066;2023-05-10T10:47:46;2.75;;;2.58;;
40995;SDS011;26723;57.478;12.066;2023-05-10T10:50:57;2.63;;;2.42;;
40995;SDS011;26723;57.478;12.066;2023-05-10T10:54:09;2.67;;;2.40;;
40995;SDS011;26723;57.478;12.066;2023-05-10T10:57:18;2.55;;;2.38;;
40995;SDS011;26723;57.478;12.066;2023-05-10T11:00:29;2.70;;;2.50;;
40995;SDS011;26723;57.478;12.066;2023-05-10T11:03:38;2.42;;;2.33;;
40995;SDS011;26723;57.478;12.066;2023-05-10T11:06:49;2.88;;;2.50;;
40995;SDS011;26723;57.478;12.066;2023-05-10T11:10:03;2.40;;;2.28;;
40995;SDS011;26723;57.478;12.066;2023-05-10T11:13:12;3.60;;;2.20;;
40995;SDS011;26723;57.478;12.066;2023-05-10T11:16:23;2.67;;;2.47;;
40995;SDS011;26723;57.478;12.066;2023-05-10T11:19:33;2.40;;;2.30;;
40995;SDS011;26723;57.478;12.066;2023-05-10T11:22:50;2.33;;;2.20;;
40995;SDS011;26723;57.478;12.066;2023-05-10T11:25:59;2.30;;;2.20;;
40995;SDS011;26723;57.478;12.066;2023-05-10T11:29:08;2.30;;;2.20;;
40995;SDS011;26723;57.478;12.066;2023-05-10T11:32:17;2.40;;;2.20;;
40995;SDS011;26723;57.478;12.066;2023-05-10T11:35:27;2.40;;;2.30;;
40995;SDS011;26723;57.478;12.066;2023-05-10T11:38:37;2.50;;;2.30;;
40995;SDS011;26723;57.478;12.066;2023-05-10T11:41:47;2.65;;;2.45;;
40995;SDS011;26723;57.478;12.066;2023-05-10T11:44:56;2.33;;;2.13;;
40995;SDS011;26723;57.478;12.066;2023-05-10T11:48:05;2.35;;;2.08;;
40995;SDS011;26723;57.478;12.066;2023-05-10T11:51:13;2.53;;;2.33;;
40995;SDS011;26723;57.478;12.066;2023-05-10T11:54:23;2.25;;;2.13;;
40995;SDS011;26723;57.478;12.066;2023-05-10T11:57:32;4.72;;;2.55;;
40995;SDS011;26723;57.478;12.066;2023-05-10T12:00:40;2.38;;;2.17;;
40995;SDS011;26723;57.478;12.066;2023-05-10T12:03:49;2.55;;;2.35;;
40995;SDS011;26723;57.478;12.066;2023-05-10T12:06:59;2.15;;;1.92;;
40995;SDS011;26723;57.478;12.066;2023-05-10T12:10:09;2.80;;;2.10;;
40995;SDS011;26723;57.478;12.066;2023-05-10T12:13:21;3.65;;;2.10;;
40995;SDS011;26723;57.478;12.066;2023-05-10T12:16:30;2.40;;;2.20;;
40995;SDS011;26723;57.478;12.066;2023-05-10T12:19:38;2.03;;;1.92;;
40995;SDS011;26723;57.478;12.066;2023-05-10T12:22:49;2.40;;;1.95;;
40995;SDS011;26723;57.478;12.066;2023-05-10T12:26:03;3.97;;;2.30;;
40995;SDS011;26723;57.478;12.066;2023-05-10T12:29:12;3.60;;;2.60;;
40995;SDS011;26723;57.478;12.066;2023-05-10T12:32:22;3.42;;;1.98;;
40995;SDS011;26723;57.478;12.066;2023-05-10T12:35:46;2.00;;;1.90;;
40995;SDS011;26723;57.478;12.066;2023-05-10T12:39:01;4.50;;;1.98;;
40995;SDS011;26723;57.478;12.066;2023-05-10T12:42:12;2.50;;;2.10;;
40995;SDS011;26723;57.478;12.066;2023-05-10T12:45:21;3.90;;;2.08;;
40995;SDS011;26723;57.478;12.066;2023-05-10T12:48:29;3.70;;;2.20;;
40995;SDS011;26723;57.478;12.066;2023-05-10T12:51:40;1.90;;;1.80;;
40995;SDS011;26723;57.478;12.066;2023-05-10T12:54:48;2.03;;;1.92;;
40995;SDS011;26723;57.478;12.066;2023-05-10T12:57:58;3.47;;;2.00;;
40995;SDS011;26723;57.478;12.066;2023-05-10T13:01:07;1.80;;;1.70;;
40995;SDS011;26723;57.478;12.066;2023-05-10T13:04:15;2.03;;;1.90;;
40995;SDS011;26723;57.478;12.066;2023-05-10T13:07:24;1.90;;;1.80;;
40995;SDS011;26723;57.478;12.066;2023-05-10T13:10:37;2.50;;;1.88;;
40995;SDS011;26723;57.478;12.066;2023-05-10T13:13:46;1.95;;;1.85;;
40995;SDS011;26723;57.478;12.066;2023-05-10T13:16:55;2.00;;;1.90;;
40995;SDS011;26723;57.478;12.066;2023-05-10T13:20:04;2.00;;;1.80;;
40995;SDS011;26723;57.478;12.066;2023-05-10T13:23:28;2.33;;;2.15;;
40995;SDS011;26723;57.478;12.066;2023-05-10T13:26:36;2.40;;;2.10;;
40995;SDS011;26723;57.478;12.066;2023-05-10T13:29:46;2.53;;;2.00;;
40995;SDS011;26723;57.478;12.066;2023-05-10T13:32:54;2.45;;;2.25;;
40995;SDS011;26723;57.478;12.066;2023-05-10T13:36:03;1.80;;;1.70;;
40995;SDS011;26723;57.478;12.066;2023-05-10T13:39:12;2.15;;;2.05;;
40995;SDS011;26723;57.478;12.066;2023-05-10T13:42:21;4.10;;;2.20;;
40995;SDS011;26723;57.478;12.066;2023-05-10T13:45:32;2.30;;;2.10;;
40995;SDS011;26723;57.478;12.066;2023-05-10T13:48:40;2.30;;;2.20;;
40995;SDS011;26723;57.478;12.066;2023-05-10T13:51:49;2.10;;;2.00;;
40995;SDS011;26723;57.478;12.066;2023-05-10T13:54:58;2.15;;;1.90;;
40995;SDS011;26723;57.478;12.066;2023-05-10T13:58:07;2.20;;;2.10;;
40995;SDS011;26723;57.478;12.066;2023-05-10T14:01:17;2.67;;;2.10;;
40995;SDS011;26723;57.478;12.066;2023-05-10T14:04:26;2.20;;;2.05;;
40995;SDS011;26723;57.478;12.066;2023-05-10T14:07:35;2.05;;;1.95;;
40995;SDS011;26723;57.478;12.066;2023-05-10T14:10:43;2.15;;;1.95;;
40995;SDS011;26723;57.478;12.066;2023-05-10T14:13:52;2.58;;;2.30;;
40995;SDS011;26723;57.478;12.066;2023-05-10T14:17:02;2.17;;;2.08;;
40995;SDS011;26723;57.478;12.066;2023-05-10T14:20:11;2.13;;;2.03;;
40995;SDS011;26723;57.478;12.066;2023-05-10T14:23:19;2.05;;;1.95;;
40995;SDS011;26723;57.478;12.066;2023-05-10T14:26:30;3.53;;;2.28;;
40995;SDS011;26723;57.478;12.066;2023-05-10T14:29:39;2.72;;;2.50;;
40995;SDS011;26723;57.478;12.066;2023-05-10T14:32:49;2.88;;;2.67;;
40995;SDS011;26723;57.478;12.066;2023-05-10T14:36:00;2.58;;;2.40;;
40995;SDS011;26723;57.478;12.066;2023-05-10T14:39:09;2.67;;;2.47;;
40995;SDS011;26723;57.478;12.066;2023-05-10T14:42:19;3.00;;;2.80;;
40995;SDS011;26723;57.478;12.066;2023-05-10T14:45:28;2.80;;;2.53;;
40995;SDS011;26723;57.478;12.066;2023-05-10T14:48:42;2.80;;;2.50;;
40995;SDS011;26723;57.478;12.066;2023-05-10T14:51:51;2.83;;;2.33;;
40995;SDS011;26723;57.478;12.066;2023-05-10T14:55:00;2.63;;;2.50;;
40995;SDS011;26723;57.478;12.066;2023-05-10T14:58:08;2.58;;;2.15;;
40995;SDS011;26723;57.478;12.066;2023-05-10T15:01:19;2.20;;;2.10;;
40995;SDS011;26723;57.478;12.066;2023-05-10T15:04:33;2.50;;;2.30;;
40995;SDS011;26723;57.478;12.066;2023-05-10T15:07:41;2.38;;;2.17;;
40995;SDS011;26723;57.478;12.066;2023-05-10T15:10:50;2.72;;;2.25;;
40995;SDS011;26723;57.478;12.066;2023-05-10T15:13:59;1.83;;;1.73;;
40995;SDS011;26723;57.478;12.066;2023-05-10T15:17:08;2.95;;;2.20;;
40995;SDS011;26723;57.478;12.066;2023-05-10T15:20:18;2.90;;;2.20;;
40995;SDS011;26723;57.478;12.066;2023-05-10T15:23:27;2.42;;;2.20;;
40995;SDS011;26723;57.478;12.066;2023-05-10T15:26:37;3.17;;;2.25;;
40995;SDS011;26723;57.478;12.066;2023-05-10T15:29:46;2.40;;;2.20;;
40995;SDS011;26723;57.478;12.066;2023-05-10T15:32:55;2.83;;;1.95;;
40995;SDS011;26723;57.478;12.066;2023-05-10T15:36:05;2.13;;;2.03;;
40995;SDS011;26723;57.478;12.066;2023-05-10T15:39:14;2.08;;;1.98;;
40995;SDS011;26723;57.478;12.066;2023-05-10T15:42:22;3.65;;;2.28;;
40995;SDS011;26723;57.478;12.066;2023-05-10T15:45:31;2.42;;;2.30;;
40995;SDS011;26723;57.478;12.066;2023-05-10T15:48:43;2.60;;;2.20;;
40995;SDS011;26723;57.478;12.066;2023-05-10T15:51:52;2.22;;;2.10;;
40995;SDS011;26723;57.478;12.066;2023-05-10T15:55:01;2.40;;;2.20;;
40995;SDS011;26723;57.478;12.066;2023-05-10T15:58:13;2.15;;;2.03;;
40995;SDS011;26723;57.478;12.066;2023-05-10T16:01:25;2.55;;;2.35;;
40995;SDS011;26723;57.478;12.066;2023-05-10T16:04:34;2.33;;;2.13;;
40995;SDS011;26723;57.478;12.066;2023-05-10T16:07:46;2.30;;;2.20;;
40995;SDS011;26723;57.478;12.066;2023-05-10T16:10:55;3.15;;;2.08;;
40995;SDS011;26723;57.478;12.066;2023-05-10T16:14:04;2.35;;;2.20;;
40995;SDS011;26723;57.478;12.066;2023-05-10T16:17:13;2.35;;;2.08;;
40995;SDS011;26723;57.478;12.066;2023-05-10T16:20:32;4.72;;;2.05;;
40995;SDS011;26723;57.478;12.066;2023-05-10T16:23:42;2.40;;;2.15;;
40995;SDS011;26723;57.478;12.066;2023-05-10T16:26:52;2.35;;;2.15;;
40995;SDS011;26723;57.478;12.066;2023-05-10T16:30:00;2.47;;;2.28;;
40995;SDS011;26723;57.478;12.066;2023-05-10T16:33:10;2.25;;;2.05;;
40995;SDS011;26723;57.478;12.066;2023-05-10T16:36:19;3.30;;;1.90;;
40995;SDS011;26723;57.478;12.066;2023-05-10T16:39:31;2.97;;;2.20;;
40995;SDS011;26723;57.478;12.066;2023-05-10T16:42:40;2.42;;;2.17;;
40995;SDS011;26723;57.478;12.066;2023-05-10T16:45:48;2.10;;;1.90;;
40995;SDS011;26723;57.478;12.066;2023-05-10T16:48:57;2.30;;;2.10;;
40995;SDS011;26723;57.478;12.066;2023-05-10T16:52:06;2.40;;;2.20;;
40995;SDS011;26723;57.478;12.066;2023-05-10T16:55:16;2.30;;;2.20;;
40995;SDS011;26723;57.478;12.066;2023-05-10T16:58:24;3.75;;;2.00;;
40995;SDS011;26723;57.478;12.066;2023-05-10T17:01:33;2.35;;;2.15;;
40995;SDS011;26723;57.478;12.066;2023-05-10T17:04:41;1.90;;;1.80;;
40995;SDS011;26723;57.478;12.066;2023-05-10T17:07:50;2.55;;;2.05;;
40995;SDS011;26723;57.478;12.066;2023-05-10T17:11:01;2.40;;;2.20;;
40995;SDS011;26723;57.478;12.066;2023-05-10T17:14:09;3.17;;;2.10;;
40995;SDS011;26723;57.478;12.066;2023-05-10T17:17:21;2.88;;;2.20;;
40995;SDS011;26723;57.478;12.066;2023-05-10T17:20:30;4.25;;;2.20;;
40995;SDS011;26723;57.478;12.066;2023-05-10T17:23:39;2.35;;;2.10;;
40995;SDS011;26723;57.478;12.066;2023-05-10T17:26:50;2.63;;;2.13;;
40995;SDS011;26723;57.478;12.066;2023-05-10T17:29:58;2.15;;;1.98;;
40995;SDS011;26723;57.478;12.066;2023-05-10T17:33:07;2.22;;;2.03;;
40995;SDS011;26723;57.478;12.066;2023-05-10T17:36:16;2.40;;;2.20;;
40995;SDS011;26723;57.478;12.066;2023-05-10T17:39:24;2.17;;;2.00;;
40995;SDS011;26723;57.478;12.066;2023-05-10T17:42:36;1.95;;;1.85;;
40995;SDS011;26723;57.478;12.066;2023-05-10T17:45:46;2.05;;;1.95;;
40995;SDS011;26723;57.478;12.066;2023-05-10T17:48:56;2.20;;;2.10;;
40995;SDS011;26723;57.478;12.066;2023-05-10T17:52:04;1.98;;;1.88;;
40995;SDS011;26723;57.478;12.066;2023-05-10T17:55:13;1.83;;;1.60;;
40995;SDS011;26723;57.478;12.066;2023-05-10T17:58:23;3.80;;;2.08;;
40995;SDS011;26723;57.478;12.066;2023-05-10T18:01:32;2.28;;;1.90;;
40995;SDS011;26723;57.478;12.066;2023-05-10T18:04:41;2.08;;;1.98;;
40995;SDS011;26723;57.478;12.066;2023-05-10T18:07:52;2.58;;;2.00;;
40995;SDS011;26723;57.478;12.066;2023-05-10T18:11:00;2.08;;;1.98;;
40995;SDS011;26723;57.478;12.066;2023-05-10T18:14:10;2.20;;;2.00;;
40995;SDS011;26723;57.478;12.066;2023-05-10T18:17:19;2.25;;;2.10;;
40995;SDS011;26723;57.478;12.066;2023-05-10T18:20:27;2.30;;;2.10;;
40995;SDS011;26723;57.478;12.066;2023-05-10T18:23:36;2.28;;;1.98;;
40995;SDS011;26723;57.478;12.066;2023-05-10T18:26:45;2.00;;;1.90;;
40995;SDS011;26723;57.478;12.066;2023-05-10T18:29:55;3.58;;;2.13;;
40995;SDS011;26723;57.478;12.066;2023-05-10T18:33:03;2.00;;;1.90;;
40995;SDS011;26723;57.478;12.066;2023-05-10T18:36:11;2.33;;;2.13;;
40995;SDS011;26723;57.478;12.066;2023-05-10T18:39:20;2.20;;;1.80;;
40995;SDS011;26723;57.478;12.066;2023-05-10T18:42:31;2.50;;;2.00;;
40995;SDS011;26723;57.478;12.066;2023-05-10T18:45:41;2.33;;;2.10;;
40995;SDS011;26723;57.478;12.066;2023-05-10T18:48:49;2.40;;;2.20;;
40995;SDS011;26723;57.478;12.066;2023-05-10T18:51:58;1.90;;;1.80;;
40995;SDS011;26723;57.478;12.066;2023-05-10T18:55:07;3.90;;;1.98;;